Time;durP1;ratioP1;P1;durP2;ratioP2;P2;SDS_P1;SDS_P2;PMS_P1;PMS_P2;Temp;Humidity;BMP_temperature;BMP_pressure;BME280_temperature;BME280_humidity;BME280_pressure;Samples;Min_cycle;Max_cycle;Signal;HPM_P1;HPM_P2
2023/06/30 00:00:53;;;;;;;17.13;4.72;;;;;;;14.74;100.00;101327.38;5015538;28;20026;-63
2023/06/30 00:03:18;;;;;;;17.45;4.90;;;;;;;14.71;100.00;101328.25;5015482;28;20034;-63
2023/06/30 00:05:45;;;;;;;15.90;4.50;;;;;;;14.70;100.00;101328.28;5015389;28;20563;-64
2023/06/30 00:08:11;;;;;;;17.95;4.47;;;;;;;14.67;100.00;101322.97;5015429;28;20030;-61
2023/06/30 00:10:36;;;;;;;17.33;4.43;;;;;;;14.58;100.00;101322.06;5015336;28;20037;-63
2023/06/30 00:13:02;;;;;;;20.88;5.30;;;;;;;14.54;100.00;101333.63;5014736;28;20436;-61
2023/06/30 00:15:27;;;;;;;18.92;4.70;;;;;;;14.51;100.00;101325.66;5015354;28;20030;-61
2023/06/30 00:17:52;;;;;;;18.27;4.70;;;;;;;14.43;100.00;101333.69;5015163;28;20034;-63
2023/06/30 00:20:18;;;;;;;18.08;4.60;;;;;;;14.50;100.00;101329.19;5014970;28;20038;-62
2023/06/30 00:22:44;;;;;;;17.58;4.38;;;;;;;14.43;100.00;101332.78;5015550;28;20060;-64
2023/06/30 00:25:09;;;;;;;18.23;4.40;;;;;;;14.43;100.00;101327.44;5014980;28;20025;-60
2023/06/30 00:27:35;;;;;;;17.02;4.60;;;;;;;14.41;100.00;101326.59;5014977;28;20099;-63
2023/06/30 00:30:00;;;;;;;19.85;4.70;;;;;;;14.36;100.00;101320.38;5015372;28;20384;-63
2023/06/30 00:32:27;;;;;;;18.65;4.50;;;;;;;14.30;100.00;101322.19;5015131;28;20038;-63
2023/06/30 00:34:53;;;;;;;18.80;4.38;;;;;;;14.21;100.00;101322.25;5015165;28;20041;-64
2023/06/30 00:37:18;;;;;;;16.65;4.47;;;;;;;14.23;100.00;101315.13;5014948;28;20030;-62
2023/06/30 00:39:43;;;;;;;18.73;4.15;;;;;;;14.11;100.00;101321.38;5014731;28;20112;-61
2023/06/30 00:42:09;;;;;;;19.95;4.57;;;;;;;14.08;100.00;101320.47;5014973;28;20388;-63
2023/06/30 00:44:35;;;;;;;17.73;4.68;;;;;;;14.07;100.00;101318.72;5014873;28;20034;-63
2023/06/30 00:47:00;;;;;;;18.60;4.50;;;;;;;14.03;100.00;101317.84;5014713;28;20030;-63
2023/06/30 00:49:27;;;;;;;18.75;4.40;;;;;;;13.95;100.00;101317.88;5014665;28;20125;-63
2023/06/30 00:51:53;;;;;;;17.23;4.45;;;;;;;13.93;100.00;101319.63;5014569;28;20025;-62
2023/06/30 00:54:18;;;;;;;19.75;4.80;;;;;;;13.84;100.00;101317.00;5014492;28;20083;-60
2023/06/30 00:56:43;;;;;;;17.05;4.50;;;;;;;13.84;100.00;101321.44;5014650;28;20026;-60
2023/06/30 00:59:09;;;;;;;19.25;4.50;;;;;;;13.87;100.00;101316.09;5014378;28;20058;-60
2023/06/30 01:01:41;;;;;;;18.80;4.80;;;;;;;13.81;100.00;101322.31;5014310;28;20122;-63
2023/06/30 01:04:23;;;;;;;18.90;4.70;;;;;;;13.85;100.00;101324.09;5014596;28;20101;-64
2023/06/30 01:07:01;;;;;;;19.58;4.60;;;;;;;13.86;100.00;101324.97;5014466;28;20091;-63
2023/06/30 01:09:29;;;;;;;18.50;4.40;;;;;;;13.98;100.00;101321.38;5014646;28;20393;-68
2023/06/30 01:11:55;;;;;;;17.95;4.78;;;;;;;13.95;100.00;101322.31;5014193;28;20556;-67
2023/06/30 01:14:23;;;;;;;19.08;4.63;;;;;;;13.93;100.00;101319.63;5010232;28;20117;-68
2023/06/30 01:16:50;;;;;;;17.75;4.50;;;;;;;13.85;100.00;101318.78;5014246;28;20034;-64
2023/06/30 01:19:26;;;;;;;19.90;4.68;;;;;;;13.85;100.00;101323.19;5013739;28;20101;-67
2023/06/30 01:22:01;;;;;;;18.05;4.40;;;;;;;13.86;100.00;101324.97;5010440;28;20030;-67
2023/06/30 01:24:33;;;;;;;20.52;4.47;;;;;;;13.79;100.00;101332.06;5013010;28;20512;-60
2023/06/30 01:26:59;;;;;;;18.73;4.50;;;;;;;13.75;100.00;101330.31;5014311;28;20021;-67
2023/06/30 01:29:25;;;;;;;17.17;4.60;;;;;;;13.83;100.00;101325.84;5013753;28;20061;-64
2023/06/30 01:31:50;;;;;;;18.38;4.55;;;;;;;13.77;100.00;101334.72;5010109;28;20480;-61
2023/06/30 01:34:16;;;;;;;19.50;4.60;;;;;;;13.72;100.00;101322.34;5014020;28;20030;-67
2023/06/30 01:36:42;;;;;;;18.42;4.50;;;;;;;13.68;100.00;101328.53;5013751;28;20061;-63
2023/06/30 01:39:07;;;;;;;17.85;4.20;;;;;;;13.69;100.00;101330.28;5013707;28;20033;-67
2023/06/30 01:41:33;;;;;;;18.58;4.50;;;;;;;13.67;100.00;101322.31;5013760;28;20121;-66
2023/06/30 01:44:00;;;;;;;18.67;4.50;;;;;;;13.60;100.00;101317.88;5013633;28;20072;-67
2023/06/30 01:46:25;;;;;;;16.75;4.25;;;;;;;13.58;100.00;101315.22;5013605;28;20507;-62
2023/06/30 01:48:51;;;;;;;18.13;4.20;;;;;;;13.49;100.00;101309.06;5013675;28;20038;-67
2023/06/30 01:51:18;;;;;;;17.25;4.30;;;;;;;13.45;100.00;101313.47;5013385;28;20362;-60
2023/06/30 01:53:43;;;;;;;18.35;4.55;;;;;;;13.35;100.00;101303.75;5013486;28;20065;-61
2023/06/30 01:56:09;;;;;;;17.88;4.75;;;;;;;13.32;100.00;101311.69;5013571;28;20022;-65
2023/06/30 01:58:35;;;;;;;20.08;4.43;;;;;;;13.29;100.00;101303.72;5013379;28;20041;-62
2023/06/30 02:01:00;;;;;;;17.58;4.10;;;;;;;13.28;100.00;101300.19;5013349;28;20026;-67
2023/06/30 02:03:25;;;;;;;19.02;4.10;;;;;;;13.16;100.00;101301.03;5013467;28;20489;-64
2023/06/30 02:05:51;;;;;;;17.45;4.20;;;;;;;13.07;100.00;101299.25;5013400;28;20381;-67
2023/06/30 02:08:17;;;;;;;17.33;4.30;;;;;;;13.00;100.00;101304.56;5013331;28;20384;-64
2023/06/30 02:10:42;;;;;;;19.23;4.47;;;;;;;12.94;100.00;101297.47;5013165;28;20026;-68
2023/06/30 02:13:07;;;;;;;19.92;4.55;;;;;;;12.88;100.00;101301.00;5013367;28;20040;-64
2023/06/30 02:15:33;;;;;;;18.50;4.50;;;;;;;12.83;100.00;101305.44;5013314;28;20033;-67
2023/06/30 02:17:58;;;;;;;17.35;4.38;;;;;;;12.84;100.00;101303.66;5013082;28;20096;-67
2023/06/30 02:20:24;;;;;;;17.33;4.20;;;;;;;12.78;100.00;101306.28;5012994;28;20064;-67
2023/06/30 02:22:50;;;;;;;19.75;4.38;;;;;;;12.75;100.00;101311.59;5013134;28;20483;-65
2023/06/30 02:25:15;;;;;;;18.88;4.50;;;;;;;12.74;100.00;101297.41;5012972;28;20034;-64
2023/06/30 02:27:44;;;;;;;18.58;4.53;;;;;;;12.70;100.00;101306.28;5012890;28;20473;-67
2023/06/30 02:30:10;;;;;;;18.45;4.30;;;;;;;12.65;100.00;101302.72;5013104;28;20036;-64
2023/06/30 02:32:37;;;;;;;19.17;4.47;;;;;;;12.70;100.00;101303.63;5012886;28;20034;-68
2023/06/30 02:35:07;;;;;;;18.50;4.45;;;;;;;12.68;100.00;101308.03;5013158;28;20445;-68
2023/06/30 02:37:33;;;;;;;20.30;4.80;;;;;;;12.60;100.00;101312.44;5012627;28;20600;-69
2023/06/30 02:39:58;;;;;;;17.70;4.40;;;;;;;12.58;100.00;101322.13;5012813;28;20058;-68
2023/06/30 02:42:23;;;;;;;17.10;4.40;;;;;;;12.52;100.00;101323.91;5012946;28;20496;-68
2023/06/30 02:44:49;;;;;;;19.63;4.90;;;;;;;12.44;100.00;101328.28;5012909;28;20025;-68
2023/06/30 02:47:14;;;;;;;20.58;4.97;;;;;;;12.45;100.00;101329.16;5012750;28;20454;-68
2023/06/30 02:49:40;;;;;;;16.38;4.60;;;;;;;12.37;100.00;101334.44;5012609;28;20535;-68
2023/06/30 02:52:06;;;;;;;15.95;4.70;;;;;;;12.35;100.00;101336.19;5012877;28;20034;-68
2023/06/30 02:54:32;;;;;;;18.83;5.00;;;;;;;12.30;100.00;101330.84;5012718;28;20025;-68
2023/06/30 02:56:58;;;;;;;19.88;5.25;;;;;;;12.26;100.00;101330.84;5012874;28;20078;-67
2023/06/30 02:59:23;;;;;;;18.83;5.30;;;;;;;12.24;100.00;101343.19;5012785;28;20088;-68
2023/06/30 03:01:48;;;;;;;19.35;5.25;;;;;;;12.21;100.00;101339.63;4994917;28;20074;-68
2023/06/30 03:04:14;;;;;;;18.85;5.38;;;;;;;12.16;100.00;101336.09;5012478;28;20030;-62
2023/06/30 03:06:39;;;;;;;18.77;5.00;;;;;;;12.14;100.00;101345.78;5012721;28;20029;-69
2023/06/30 03:09:04;;;;;;;18.23;5.35;;;;;;;12.11;100.00;101343.13;5012404;28;20042;-68
2023/06/30 03:11:30;;;;;;;20.80;5.45;;;;;;;12.07;100.00;101336.03;5012617;28;20075;-68
2023/06/30 03:13:55;;;;;;;20.13;5.38;;;;;;;12.05;100.00;101343.09;5012502;28;20030;-67
2023/06/30 03:16:20;;;;;;;20.58;5.75;;;;;;;11.97;100.00;101336.84;5012489;28;20077;-65
2023/06/30 03:18:46;;;;;;;17.88;5.20;;;;;;;11.84;100.00;101338.50;5012446;28;20615;-63
2023/06/30 03:21:11;;;;;;;19.60;5.22;;;;;;;11.85;100.00;101341.16;5012464;28;20069;-67
2023/06/30 03:23:36;;;;;;;18.23;5.40;;;;;;;11.70;100.00;101338.41;5012448;28;20089;-67
2023/06/30 03:26:02;;;;;;;16.75;5.22;;;;;;;11.66;100.00;101331.31;5012597;28;20033;-66
2023/06/30 03:28:27;;;;;;;19.38;5.63;;;;;;;11.72;100.00;101322.53;5012305;28;20121;-67
2023/06/30 03:30:53;;;;;;;21.08;5.95;;;;;;;11.74;100.00;101315.50;5012394;28;20040;-65
2023/06/30 03:33:18;;;;;;;17.52;5.85;;;;;;;11.78;100.00;101328.75;5012528;28;20108;-66
2023/06/30 03:35:43;;;;;;;20.48;5.97;;;;;;;11.77;100.00;101326.97;5012252;28;20069;-67
2023/06/30 03:38:09;;;;;;;19.70;6.25;;;;;;;11.73;100.00;101325.19;5012455;28;20034;-66
2023/06/30 03:40:34;;;;;;;20.55;6.03;;;;;;;11.77;100.00;101320.81;5012405;28;20481;-64
2023/06/30 03:42:59;;;;;;;20.90;6.43;;;;;;;11.69;100.00;101320.72;5012279;28;20077;-67
2023/06/30 03:45:25;;;;;;;18.67;5.72;;;;;;;11.67;100.00;101323.38;5012411;28;20409;-66
2023/06/30 03:47:50;;;;;;;23.00;6.72;;;;;;;11.66;100.00;101323.34;5012640;28;20410;-61
2023/06/30 03:50:16;;;;;;;21.38;6.60;;;;;;;11.65;100.00;101321.59;4998152;28;20061;-65
2023/06/30 03:52:41;;;;;;;20.35;6.47;;;;;;;11.62;100.00;101321.56;5016157;28;20045;-67
2023/06/30 03:55:07;;;;;;;21.02;6.65;;;;;;;11.62;100.00;101318.91;5015665;28;20105;-64
2023/06/30 03:57:32;;;;;;;20.48;6.85;;;;;;;11.64;100.00;101318.06;4997992;28;20036;-62
2023/06/30 03:59:57;;;;;;;20.85;6.50;;;;;;;11.64;100.00;101320.69;5015622;28;20034;-63
2023/06/30 04:02:23;;;;;;;20.05;6.50;;;;;;;11.68;100.00;101311.03;5015487;28;20033;-68
2023/06/30 04:04:48;;;;;;;20.55;6.30;;;;;;;11.68;100.00;101322.50;5015406;28;20037;-66
2023/06/30 04:07:13;;;;;;;20.65;6.38;;;;;;;11.64;100.00;101315.41;5015875;28;20049;-65
2023/06/30 04:09:39;;;;;;;19.42;6.35;;;;;;;11.68;100.00;101321.63;5015284;28;20476;-67
2023/06/30 04:12:05;;;;;;;20.92;6.50;;;;;;;11.67;100.00;101320.72;5015331;28;20037;-66
2023/06/30 04:14:30;;;;;;;19.70;6.25;;;;;;;11.60;100.00;101318.03;5015791;28;20029;-62
2023/06/30 04:16:55;;;;;;;19.13;6.50;;;;;;;11.63;100.00;101320.69;5015292;28;20029;-61
2023/06/30 04:19:21;;;;;;;22.50;6.93;;;;;;;11.67;100.00;101323.38;5015212;28;20539;-66
2023/06/30 04:21:47;;;;;;;22.75;7.60;;;;;;;11.65;100.00;101332.19;5015164;28;20030;-63
2023/06/30 04:24:13;;;;;;;22.00;7.20;;;;;;;11.67;100.00;101326.00;5015285;28;20037;-63
2023/06/30 04:26:38;;;;;;;21.52;7.50;;;;;;;11.71;100.00;101326.94;5015164;28;20101;-63
2023/06/30 04:29:03;;;;;;;21.00;7.05;;;;;;;11.70;100.00;101330.47;5014928;28;20030;-64
2023/06/30 04:31:29;;;;;;;22.02;7.63;;;;;;;11.64;100.00;101318.06;4997516;28;20030;-63
2023/06/30 04:33:54;;;;;;;21.00;7.45;;;;;;;11.68;100.00;101318.97;5015162;28;20033;-63
2023/06/30 04:36:20;;;;;;;21.85;7.78;;;;;;;11.68;100.00;101332.22;5014796;28;20503;-60
2023/06/30 04:38:49;;;;;;;20.73;8.10;;;;;;;11.67;100.00;101323.38;4997199;28;20038;-60
2023/06/30 04:41:15;;;;;;;22.40;7.80;;;;;;;11.66;100.00;101315.41;5014910;28;20062;-60
2023/06/30 04:43:43;;;;;;;20.98;7.43;;;;;;;11.69;100.00;101319.00;5014649;28;20062;-64
2023/06/30 04:46:08;;;;;;;20.30;7.40;;;;;;;11.72;100.00;101320.75;5014714;28;20026;-62
2023/06/30 04:48:34;;;;;;;22.30;7.97;;;;;;;11.74;100.00;101319.00;5014762;28;20061;-64
2023/06/30 04:50:59;;;;;;;21.63;7.95;;;;;;;11.71;100.00;101320.75;5014589;28;20038;-60
2023/06/30 04:53:25;;;;;;;22.52;7.75;;;;;;;11.73;100.00;101330.47;4997221;28;20160;-60
2023/06/30 04:55:50;;;;;;;20.92;7.82;;;;;;;11.73;100.00;101330.47;5014669;28;20061;-63
2023/06/30 04:58:15;;;;;;;22.20;7.93;;;;;;;11.75;100.00;101334.03;4996782;28;20034;-60
2023/06/30 05:00:43;;;;;;;20.95;8.00;;;;;;;11.84;100.00;101335.88;5014292;28;20022;-60
2023/06/30 05:03:08;;;;;;;20.52;7.43;;;;;;;11.88;100.00;101334.09;5014504;28;20034;-60
2023/06/30 05:05:33;;;;;;;21.85;8.00;;;;;;;11.93;100.00;101327.09;5014216;28;20079;-68
2023/06/30 05:07:59;;;;;;;21.52;8.00;;;;;;;11.99;100.00;101324.50;5014166;28;20033;-66
2023/06/30 05:10:24;;;;;;;24.10;7.88;;;;;;;12.06;100.00;101325.41;5014347;28;20034;-68
2023/06/30 05:12:50;;;;;;;22.00;7.95;;;;;;;12.10;100.00;101322.81;5014041;28;20036;-67
2023/06/30 05:15:15;;;;;;;21.80;7.70;;;;;;;12.13;100.00;101324.56;5014320;28;20117;-66
2023/06/30 05:17:40;;;;;;;23.00;7.72;;;;;;;12.24;100.00;101316.69;5014352;28;20096;-68
2023/06/30 05:20:08;;;;;;;20.60;7.38;;;;;;;12.33;100.00;101311.44;5013835;28;20103;-68
2023/06/30 05:22:34;;;;;;;21.42;7.82;;;;;;;12.38;100.00;101315.88;5014203;28;20030;-68
2023/06/30 05:24:59;;;;;;;21.05;7.32;;;;;;;12.47;100.00;101322.97;5013890;28;20030;-66
2023/06/30 05:27:25;;;;;;;21.63;7.68;;;;;;;12.54;100.00;101324.78;5013901;28;20025;-68
2023/06/30 05:29:50;;;;;;;21.75;7.35;;;;;;;12.63;100.00;101318.63;5013911;28;20040;-68
2023/06/30 05:32:15;;;;;;;20.38;6.80;;;;;;;12.73;100.00;101327.50;5013776;28;20021;-67
2023/06/30 05:34:42;;;;;;;19.38;7.03;;;;;;;12.85;100.00;101326.66;5013781;28;20032;-67
2023/06/30 05:37:08;;;;;;;19.90;6.90;;;;;;;12.86;100.00;101318.69;5013808;28;20041;-66
2023/06/30 05:39:33;;;;;;;19.52;6.63;;;;;;;12.96;100.00;101313.41;5013682;28;20021;-68
2023/06/30 05:41:58;;;;;;;20.45;6.70;;;;;;;13.00;100.00;101316.06;5013674;28;20053;-67
2023/06/30 05:44:24;;;;;;;18.98;6.20;;;;;;;13.07;100.00;101320.50;5014075;28;20030;-67
2023/06/30 05:46:49;;;;;;;19.63;6.30;;;;;;;13.16;100.00;101318.75;5005917;28;20092;-70
2023/06/30 05:49:15;;;;;;;21.35;6.50;;;;;;;13.27;100.00;101324.94;5004959;28;20060;-59
2023/06/30 05:51:40;;;;;;;17.98;5.80;;;;;;;13.36;100.00;101324.09;5010729;28;20132;-60
2023/06/30 05:54:05;;;;;;;20.50;6.43;;;;;;;13.42;100.00;101316.13;4995647;28;20030;-60
2023/06/30 05:56:31;;;;;;;19.88;6.35;;;;;;;13.52;100.00;101317.91;5013412;28;20576;-60
2023/06/30 05:58:58;;;;;;;18.40;5.90;;;;;;;13.57;100.00;101318.81;5013204;28;20029;-59
2023/06/30 06:01:23;;;;;;;19.60;5.90;;;;;;;13.65;100.00;101315.25;5013145;28;20026;-58
2023/06/30 06:03:49;;;;;;;18.13;5.50;;;;;;;13.75;100.00;101320.53;5012903;28;20362;-59
2023/06/30 06:06:15;;;;;;;18.27;5.70;;;;;;;13.80;100.00;101315.22;5013162;28;20493;-59
2023/06/30 06:08:48;;;;;;;17.92;5.45;;;;;;;13.86;100.00;101323.19;5012979;28;20026;-58
2023/06/30 06:11:14;;;;;;;17.88;5.53;;;;;;;13.93;100.00;101319.63;5012487;28;20038;-62
2023/06/30 06:13:39;;;;;;;19.05;5.15;;;;;;;14.04;100.00;101314.28;5013468;28;20358;-59
2023/06/30 06:16:06;;;;;;;18.10;5.30;;;;;;;14.09;100.00;101319.59;5012536;28;20485;-58
2023/06/30 06:18:32;;;;;;;16.40;4.90;;;;;;;14.14;100.00;101320.47;5012912;28;20568;-64
2023/06/30 06:21:03;;;;;;;17.33;5.13;;;;;;;14.23;100.00;101319.56;5012839;28;20050;-60
2023/06/30 06:23:28;;;;;;;15.75;4.53;;;;;;;14.26;100.00;101325.75;5012813;28;20107;-60
2023/06/30 06:25:53;;;;;;;15.90;4.60;;;;;;;14.36;100.00;101331.03;5012719;28;20021;-60
2023/06/30 06:28:19;;;;;;;16.67;4.70;;;;;;;14.43;100.00;101327.44;5012761;28;20030;-59
2023/06/30 06:30:44;;;;;;;16.67;4.47;;;;;;;14.47;100.00;101337.19;5012826;28;20189;-67
2023/06/30 06:33:10;;;;;;;15.25;4.30;;;;;;;14.55;100.00;101327.41;5012972;28;20022;-71
2023/06/30 06:35:35;;;;;;;15.95;4.35;;;;;;;14.64;100.00;101331.84;5012563;28;20088;-68
2023/06/30 06:38:01;;;;;;;15.88;4.00;;;;;;;14.70;100.00;101325.63;5012458;28;20026;-68
2023/06/30 06:40:29;;;;;;;16.88;4.20;;;;;;;14.78;100.00;101332.66;5012741;28;20041;-66
2023/06/30 06:42:55;;;;;;;15.50;4.00;;;;;;;14.86;100.00;101329.94;5012743;28;20026;-67
2023/06/30 06:45:21;;;;;;;12.55;3.70;;;;;;;14.94;100.00;101330.81;5012741;28;20061;-67
2023/06/30 06:48:24;;;;;;;15.52;3.60;;;;;;;15.04;100.00;101328.06;5012595;28;20049;-63
2023/06/30 06:50:57;;;;;;;17.52;4.05;;;;;;;15.11;100.00;101328.00;5011299;28;20045;-67
2023/06/30 06:53:27;;;;;;;15.27;3.80;;;;;;;15.19;100.00;101335.97;5009056;28;20029;-60
2023/06/30 06:55:55;;;;;;;12.60;3.42;;;;;;;15.26;100.00;101328.78;5009087;28;20116;-66
2023/06/30 06:58:21;;;;;;;13.68;3.50;;;;;;;15.34;100.00;101325.19;4995374;28;20034;-65
2023/06/30 07:00:48;;;;;;;13.68;3.28;;;;;;;15.42;100.00;101322.47;5012356;28;20044;-67
2023/06/30 07:03:14;;;;;;;10.27;3.05;;;;;;;15.51;100.00;101326.84;5012375;28;20072;-67
2023/06/30 07:05:40;;;;;;;12.82;3.22;;;;;;;15.59;100.00;101330.31;5012405;28;20022;-64
2023/06/30 07:08:10;;;;;;;10.63;2.92;;;;;;;15.62;100.00;101324.94;5012294;28;20049;-65
2023/06/30 07:10:35;;;;;;;9.98;2.80;;;;;;;15.73;100.00;101337.28;5012601;28;20583;-64
2023/06/30 07:13:02;;;;;;;10.68;2.90;;;;;;;15.81;100.00;101330.16;5012648;28;20080;-65
2023/06/30 07:15:28;;;;;;;10.40;3.00;;;;;;;15.88;100.00;101328.31;5012083;28;20474;-65
2023/06/30 07:17:53;;;;;;;9.43;2.75;;;;;;;16.01;100.00;101333.50;5012648;28;20025;-60
2023/06/30 07:20:18;;;;;;;10.70;2.75;;;;;;;16.09;100.00;101335.19;5012203;28;20050;-59
2023/06/30 07:22:44;;;;;;;10.77;2.85;;;;;;;16.24;100.00;101329.69;5012847;28;20041;-59
2023/06/30 07:25:09;;;;;;;10.68;2.85;;;;;;;16.25;100.00;101328.81;5016182;28;20382;-62
2023/06/30 07:27:38;;;;;;;7.07;2.55;;;;;;;16.36;100.00;101332.22;5015649;28;20037;-63
2023/06/30 07:30:05;;;;;;;10.60;2.60;;;;;;;16.48;100.00;101338.31;5016122;28;20380;-59
2023/06/30 07:32:33;;;;;;;11.80;2.80;;;;;;;16.53;100.00;101336.47;5016135;28;20041;-59
2023/06/30 07:34:58;;;;;;;12.27;2.60;;;;;;;16.63;100.00;101338.13;5015922;28;20038;-61
2023/06/30 07:37:23;;;;;;;12.02;2.88;;;;;;;16.76;100.00;101332.59;5016150;28;20030;-61
2023/06/30 07:39:49;;;;;;;13.23;2.63;;;;;;;16.88;100.00;101335.16;5015479;28;20068;-59
2023/06/30 07:42:15;;;;;;;10.98;2.60;;;;;;;16.96;100.00;101338.59;5015817;28;20329;-59
2023/06/30 07:44:40;;;;;;;11.93;2.78;;;;;;;17.06;100.00;101337.53;5015833;28;20033;-60
2023/06/30 07:47:05;;;;;;;8.63;2.60;;;;;;;17.20;95.99;101331.13;5015188;28;20117;-60
2023/06/30 07:49:31;;;;;;;10.93;2.90;;;;;;;17.27;93.68;101335.47;5015373;28;20026;-59
2023/06/30 07:51:57;;;;;;;14.23;2.70;;;;;;;17.43;89.74;101336.97;5015272;28;20037;-59
2023/06/30 07:54:22;;;;;;;10.18;2.70;;;;;;;17.55;87.96;101332.34;5015612;28;20446;-60
2023/06/30 07:56:47;;;;;;;10.88;2.60;;;;;;;17.71;88.52;101331.16;4997918;28;20021;-66
2023/06/30 07:59:13;;;;;;;11.10;2.83;;;;;;;17.86;85.62;101334.47;5015730;28;20030;-60
2023/06/30 08:01:38;;;;;;;9.57;2.60;;;;;;;18.02;84.18;101335.97;5015232;28;20484;-60
2023/06/30 08:04:04;;;;;;;11.98;2.80;;;;;;;18.22;84.39;101337.41;5014975;28;20103;-65
2023/06/30 08:06:29;;;;;;;9.13;2.60;;;;;;;18.26;75.60;101334.63;5015382;28;20081;-67
2023/06/30 08:08:54;;;;;;;9.05;2.70;;;;;;;18.36;82.07;101329.09;5015296;28;20034;-68
2023/06/30 08:11:20;;;;;;;10.60;2.60;;;;;;;18.47;77.08;101333.31;5015298;28;20034;-62
2023/06/30 08:13:45;;;;;;;11.27;2.65;;;;;;;18.59;78.73;101331.28;5015516;28;20025;-69
2023/06/30 08:16:11;;;;;;;8.82;2.60;;;;;;;18.46;72.21;101336.91;5015156;28;20125;-61
2023/06/30 08:18:36;;;;;;;10.38;2.65;;;;;;;18.55;74.44;101335.84;5015473;28;20026;-64
2023/06/30 08:21:03;;;;;;;9.65;2.70;;;;;;;18.68;72.38;101333.75;5015001;28;20053;-60
2023/06/30 08:23:28;;;;;;;10.68;2.80;;;;;;;18.78;72.34;101326.41;5015119;28;20022;-65
2023/06/30 08:25:55;;;;;;;12.80;2.95;;;;;;;18.71;71.12;101325.69;4989713;28;20055;-69
2023/06/30 08:28:21;;;;;;;11.27;2.88;;;;;;;18.89;72.53;101321.75;5003949;28;20049;-60
2023/06/30 08:30:47;;;;;;;12.38;2.90;;;;;;;19.30;74.04;101324.38;5006243;28;20405;-59
2023/06/30 08:33:12;;;;;;;11.98;3.03;;;;;;;19.51;67.44;101322.94;5005099;28;20022;-65
2023/06/30 08:35:38;;;;;;;12.05;2.85;;;;;;;19.81;65.67;101321.28;5004333;28;20466;-67
2023/06/30 08:38:03;;;;;;;11.98;3.00;;;;;;;19.78;62.03;101332.09;5006224;28;20363;-62
2023/06/30 08:40:29;;;;;;;13.02;3.33;;;;;;;19.88;64.82;101326.47;5003796;28;20053;-67
2023/06/30 08:42:58;;;;;;;11.23;3.20;;;;;;;19.88;64.58;101326.47;5010880;28;20061;-63
2023/06/30 08:45:25;;;;;;;12.93;3.15;;;;;;;19.79;62.59;101317.78;5014672;28;20032;-66
2023/06/30 08:47:51;;;;;;;13.02;3.10;;;;;;;19.92;60.98;101310.28;5014770;28;20033;-60
2023/06/30 08:50:16;;;;;;;13.50;3.10;;;;;;;20.24;60.95;101303.16;5014467;28;20504;-60
2023/06/30 08:52:43;;;;;;;12.20;3.10;;;;;;;20.44;60.43;101307.91;5014850;28;20034;-67
2023/06/30 08:55:09;;;;;;;13.82;3.13;;;;;;;20.88;60.48;101296.75;5014788;28;20037;-62
2023/06/30 08:57:35;;;;;;;14.02;3.20;;;;;;;21.07;61.40;101305.13;5014751;28;20036;-60
2023/06/30 09:00:00;;;;;;;11.60;3.28;;;;;;;21.29;61.63;101302.63;5014673;28;20029;-61
2023/06/30 09:02:27;;;;;;;11.20;3.20;;;;;;;21.48;57.41;101300.19;5014641;28;20037;-62
2023/06/30 09:04:54;;;;;;;12.35;3.45;;;;;;;21.48;56.76;101302.88;5014391;28;20058;-66
2023/06/30 09:07:25;;;;;;;11.68;3.15;;;;;;;21.55;56.07;101296.41;5014243;28;20092;-61
2023/06/30 09:09:56;;;;;;;15.38;3.67;;;;;;;21.75;56.91;101302.88;5014406;28;20397;-60
2023/06/30 09:12:24;;;;;;;12.23;3.10;;;;;;;21.90;54.52;101302.34;4996638;28;20408;-66
2023/06/30 09:14:51;;;;;;;10.52;2.70;;;;;;;21.96;51.69;101306.63;5014197;28;20053;-69
2023/06/30 09:17:17;;;;;;;11.48;2.90;;;;;;;21.98;51.41;101309.28;5014551;28;20077;-67
2023/06/30 09:19:44;;;;;;;12.93;3.00;;;;;;;21.90;49.34;101296.97;5013831;28;20102;-68
2023/06/30 09:22:11;;;;;;;10.35;2.65;;;;;;;22.18;48.88;101293.28;5013947;28;20033;-65
2023/06/30 09:24:36;;;;;;;9.40;2.78;;;;;;;22.68;48.79;101291.44;5014207;28;20061;-60
2023/06/30 09:27:01;;;;;;;11.02;2.95;;;;;;;23.03;48.20;101292.69;4996400;28;20068;-66
2023/06/30 09:29:32;;;;;;;14.00;3.50;;;;;;;23.25;47.34;101302.63;5013739;28;20041;-64
2023/06/30 09:32:01;;;;;;;12.32;3.42;;;;;;;22.88;47.97;101291.50;5014093;28;20413;-67
2023/06/30 09:34:26;;;;;;;17.23;3.50;;;;;;;22.62;48.81;101284.47;5014034;28;20033;-63
2023/06/30 09:36:53;;;;;;;10.90;3.10;;;;;;;22.14;51.07;101288.06;5004124;28;20030;-63
2023/06/30 09:39:19;;;;;;;12.35;2.88;;;;;;;22.31;50.94;101285.63;5004975;28;20105;-64
2023/06/30 09:41:45;;;;;;;14.00;2.85;;;;;;;;;;5001974;28;20044;-65
2023/06/30 09:44:12;;;;;;;12.27;2.90;;;;;;;22.27;48.87;101282.16;5004940;28;20030;-66
2023/06/30 09:46:51;;;;;;;10.95;2.67;;;;;;;22.75;48.53;101284.84;5001920;28;20113;-66
2023/06/30 09:49:23;;;;;;;10.32;2.70;;;;;;;23.05;45.88;101281.84;5010422;28;20112;-66
2023/06/30 09:51:49;;;;;;;10.93;2.70;;;;;;;23.18;45.98;101291.22;5013940;28;20034;-59
2023/06/30 09:54:16;;;;;;;11.27;3.15;;;;;;;22.85;45.94;101286.25;5013437;28;20037;-64
2023/06/30 09:56:41;;;;;;;11.13;3.00;;;;;;;22.85;47.33;101280.84;5009651;28;20437;-67
2023/06/30 09:59:07;;;;;;;11.98;3.20;;;;;;;22.73;46.71;101293.00;5013331;28;20056;-67
2023/06/30 10:01:34;;;;;;;11.50;3.38;;;;;;;22.65;45.25;101278.09;5013223;28;20062;-65
2023/06/30 10:04:00;;;;;;;12.15;3.20;;;;;;;22.84;47.51;101284.47;5013676;28;20350;-67
2023/06/30 10:06:27;;;;;;;10.30;3.03;;;;;;;23.07;46.96;101285.38;5013268;28;20109;-63
2023/06/30 10:08:56;;;;;;;13.13;3.10;;;;;;;23.38;45.79;101278.72;5012912;28;20038;-60
2023/06/30 10:11:22;;;;;;;10.85;3.00;;;;;;;24.33;43.81;101279.03;5013502;28;20386;-60
2023/06/30 10:13:53;;;;;;;12.45;3.28;;;;;;;24.89;41.50;101271.91;5005528;28;20477;-59
2023/06/30 10:16:21;;;;;;;9.40;3.00;;;;;;;24.78;41.78;101282.38;5005139;28;20380;-59
2023/06/30 10:18:49;;;;;;;10.75;2.90;;;;;;;25.38;41.32;101274.91;5002731;28;20022;-60
2023/06/30 10:21:14;;;;;;;10.65;3.03;;;;;;;25.93;40.35;101264.84;4989281;28;20054;-60
2023/06/30 10:23:44;;;;;;;14.52;3.00;;;;;;;26.01;38.70;101273.47;4992767;28;20033;-60
2023/06/30 10:26:13;;;;;;;8.98;2.83;;;;;;;25.63;40.02;101276.34;4993282;28;20073;-60
2023/06/30 10:28:40;;;;;;;11.95;3.00;;;;;;;26.06;38.12;101265.94;4993234;28;20505;-60
2023/06/30 10:31:05;;;;;;;10.73;3.20;;;;;;;26.76;36.71;101260.28;4993204;28;20037;-60
2023/06/30 10:33:31;;;;;;;11.20;2.90;;;;;;;26.39;37.87;101254.22;4989180;28;20038;-59
2023/06/30 10:35:58;;;;;;;13.98;3.10;;;;;;;25.80;40.02;101261.91;4995836;28;20058;-62
2023/06/30 10:38:24;;;;;;;16.42;3.10;;;;;;;25.92;40.73;101252.25;4993150;28;20030;-65
2023/06/30 10:40:49;;;;;;;10.18;3.00;;;;;;;27.59;36.21;101253.69;4993012;28;20035;-64
2023/06/30 10:43:17;;;;;;;11.50;3.00;;;;;;;28.45;34.67;101253.75;4993214;28;20085;-67
2023/06/30 10:46:14;;;;;;;14.07;3.05;;;;;;;29.98;34.72;101262.56;4992990;28;20035;-61
2023/06/30 10:48:40;;;;;;;12.63;2.70;;;;;;;30.74;30.76;101254.38;4957856;28;20490;-67
2023/06/30 10:51:06;;;;;;;12.50;2.83;;;;;;;30.75;29.84;101247.94;4992956;28;20117;-64
2023/06/30 10:53:31;;;;;;;10.07;2.80;;;;;;;30.82;30.47;101249.22;4993472;28;20054;-62
2023/06/30 10:55:57;;;;;;;11.73;2.85;;;;;;;30.03;31.53;101249.50;4992943;28;20473;-69
2023/06/30 10:58:23;;;;;;;9.77;2.78;;;;;;;30.65;30.29;101244.16;4996355;28;20077;-60
2023/06/30 11:01:05;;;;;;;10.05;2.90;;;;;;;31.26;30.41;101245.00;4982221;28;20441;-68
2023/06/30 11:03:56;;;;;;;6.97;2.60;;;;;;;31.05;31.00;101235.75;4997136;28;20022;-67
2023/06/30 11:06:22;;;;;;;8.82;2.88;;;;;;;31.68;27.81;101238.22;4994823;28;20034;-65
2023/06/30 11:09:01;;;;;;;9.88;2.70;;;;;;;30.84;29.65;101224.56;4996916;28;20034;-66